sensor_id;sensor_type;location;lat;lon;timestamp;temperature;humidity
38604;DHT22;24924;50.054;8.790;2023-08-07T00:00:36;14.60;99.90
38604;DHT22;24924;50.054;8.790;2023-08-07T00:03:02;12.70;99.90
38604;DHT22;24924;50.054;8.790;2023-08-07T00:05:28;13.30;99.90
38604;DHT22;24924;50.054;8.790;2023-08-07T00:07:54;12.80;99.90
38604;DHT22;24924;50.054;8.790;2023-08-07T00:10:20;11.00;99.90
38604;DHT22;24924;50.054;8.790;2023-08-07T00:15:12;14.60;99.90
38604;DHT22;24924;50.054;8.790;2023-08-07T00:17:38;13.50;99.90
38604;DHT22;24924;50.054;8.790;2023-08-07T00:20:04;13.40;99.90
38604;DHT22;24924;50.054;8.790;2023-08-07T00:22:30;13.80;99.90
38604;DHT22;24924;50.054;8.790;2023-08-07T00:24:56;10.60;99.90
38604;DHT22;24924;50.054;8.790;2023-08-07T00:27:22;12.80;99.90
38604;DHT22;24924;50.054;8.790;2023-08-07T00:37:06;13.40;99.90
38604;DHT22;24924;50.054;8.790;2023-08-07T00:39:33;13.10;99.90
38604;DHT22;24924;50.054;8.790;2023-08-07T00:44:25;12.80;99.90
38604;DHT22;24924;50.054;8.790;2023-08-07T00:46:52;13.40;99.90
38604;DHT22;24924;50.054;8.790;2023-08-07T00:49:19;12.90;99.90
38604;DHT22;24924;50.054;8.790;2023-08-07T00:54:15;12.80;99.90
38604;DHT22;24924;50.054;8.790;2023-08-07T00:59:11;12.90;99.90
38604;DHT22;24924;50.054;8.790;2023-08-07T01:04:05;14.50;99.90
38604;DHT22;24924;50.054;8.790;2023-08-07T01:06:31;12.80;99.90
38604;DHT22;24924;50.054;8.790;2023-08-07T01:08:57;13.60;99.90
38604;DHT22;24924;50.054;8.790;2023-08-07T01:11:40;13.40;99.90
38604;DHT22;24924;50.054;8.790;2023-08-07T01:14:37;12.50;99.90
38604;DHT22;24924;50.054;8.790;2023-08-07T01:17:09;13.60;99.90
38604;DHT22;24924;50.054;8.790;2023-08-07T01:22:15;11.60;99.90
38604;DHT22;24924;50.054;8.790;2023-08-07T01:24:46;13.20;99.90
38604;DHT22;24924;50.054;8.790;2023-08-07T01:35:24;12.90;99.90
38604;DHT22;24924;50.054;8.790;2023-08-07T01:37:55;11.30;99.90
38604;DHT22;24924;50.054;8.790;2023-08-07T01:40:22;14.20;99.90
38604;DHT22;24924;50.054;8.790;2023-08-07T01:45:25;12.80;99.90
38604;DHT22;24924;50.054;8.790;2023-08-07T01:47:52;12.90;99.90
38604;DHT22;24924;50.054;8.790;2023-08-07T01:50:22;14.40;99.90
38604;DHT22;24924;50.054;8.790;2023-08-07T01:52:49;13.30;99.90
38604;DHT22;24924;50.054;8.790;2023-08-07T01:55:17;11.90;99.90
38604;DHT22;24924;50.054;8.790;2023-08-07T01:57:50;13.30;99.90
38604;DHT22;24924;50.054;8.790;2023-08-07T02:00:16;13.40;99.90
38604;DHT22;24924;50.054;8.790;2023-08-07T02:02:42;13.50;99.90
38604;DHT22;24924;50.054;8.790;2023-08-07T02:05:08;13.20;99.90
38604;DHT22;24924;50.054;8.790;2023-08-07T02:07:34;13.30;99.90
38604;DHT22;24924;50.054;8.790;2023-08-07T02:12:28;14.30;99.90
38604;DHT22;24924;50.054;8.790;2023-08-07T02:14:59;13.20;99.90
38604;DHT22;24924;50.054;8.790;2023-08-07T02:17:26;11.60;99.90
38604;DHT22;24924;50.054;8.790;2023-08-07T02:19:52;14.00;99.90
38604;DHT22;24924;50.054;8.790;2023-08-07T02:22:19;12.90;99.90
38604;DHT22;24924;50.054;8.790;2023-08-07T02:24:45;12.70;99.90
38604;DHT22;24924;50.054;8.790;2023-08-07T02:27:11;14.30;99.90
38604;DHT22;24924;50.054;8.790;2023-08-07T02:29:37;13.90;99.90
38604;DHT22;24924;50.054;8.790;2023-08-07T02:32:03;13.10;99.90
38604;DHT22;24924;50.054;8.790;2023-08-07T02:34:30;12.60;99.90
38604;DHT22;24924;50.054;8.790;2023-08-07T02:36:58;12.60;99.90
38604;DHT22;24924;50.054;8.790;2023-08-07T02:39:24;12.70;99.90
38604;DHT22;24924;50.054;8.790;2023-08-07T02:41:50;13.30;99.90
38604;DHT22;24924;50.054;8.790;2023-08-07T02:46:46;13.10;99.90
38604;DHT22;24924;50.054;8.790;2023-08-07T02:49:11;14.10;99.90
38604;DHT22;24924;50.054;8.790;2023-08-07T02:51:37;12.80;99.90
38604;DHT22;24924;50.054;8.790;2023-08-07T02:56:29;12.90;99.90
38604;DHT22;24924;50.054;8.790;2023-08-07T02:58:55;13.30;99.90
38604;DHT22;24924;50.054;8.790;2023-08-07T03:03:50;12.80;99.90
38604;DHT22;24924;50.054;8.790;2023-08-07T03:06:16;12.90;99.90
38604;DHT22;24924;50.054;8.790;2023-08-07T03:11:08;12.60;99.90
38604;DHT22;24924;50.054;8.790;2023-08-07T03:13:34;11.90;99.90
38604;DHT22;24924;50.054;8.790;2023-08-07T03:16:04;13.10;99.90
38604;DHT22;24924;50.054;8.790;2023-08-07T03:18:30;12.90;99.90
38604;DHT22;24924;50.054;8.790;2023-08-07T03:20:57;12.90;99.90
38604;DHT22;24924;50.054;8.790;2023-08-07T03:23:28;12.80;99.90
38604;DHT22;24924;50.054;8.790;2023-08-07T03:26:10;13.60;99.90
38604;DHT22;24924;50.054;8.790;2023-08-07T03:28:38;12.70;99.90
38604;DHT22;24924;50.054;8.790;2023-08-07T03:31:04;12.50;99.90
38604;DHT22;24924;50.054;8.790;2023-08-07T03:35:59;12.40;99.90
38604;DHT22;24924;50.054;8.790;2023-08-07T03:38:25;12.60;99.90
38604;DHT22;24924;50.054;8.790;2023-08-07T03:50:40;11.10;99.90
38604;DHT22;24924;50.054;8.790;2023-08-07T03:53:06;13.60;99.90
38604;DHT22;24924;50.054;8.790;2023-08-07T03:55:36;13.00;99.90
38604;DHT22;24924;50.054;8.790;2023-08-07T03:58:02;12.60;99.90
38604;DHT22;24924;50.054;8.790;2023-08-07T04:02:54;13.10;99.90
38604;DHT22;24924;50.054;8.790;2023-08-07T04:05:20;13.00;99.90
38604;DHT22;24924;50.054;8.790;2023-08-07T04:10:13;14.30;99.90
38604;DHT22;24924;50.054;8.790;2023-08-07T04:15:06;14.00;99.90
38604;DHT22;24924;50.054;8.790;2023-08-07T04:17:32;10.50;99.90
38604;DHT22;24924;50.054;8.790;2023-08-07T04:22:24;14.40;99.90
38604;DHT22;24924;50.054;8.790;2023-08-07T04:24:49;13.10;99.90
38604;DHT22;24924;50.054;8.790;2023-08-07T04:27:15;13.20;99.90
38604;DHT22;24924;50.054;8.790;2023-08-07T04:29:41;13.00;99.90
38604;DHT22;24924;50.054;8.790;2023-08-07T04:32:07;12.90;99.90
38604;DHT22;24924;50.054;8.790;2023-08-07T04:37:00;14.40;99.90
38604;DHT22;24924;50.054;8.790;2023-08-07T04:39:26;12.90;99.90
38604;DHT22;24924;50.054;8.790;2023-08-07T04:41:52;12.80;99.90
38604;DHT22;24924;50.054;8.790;2023-08-07T04:44:18;13.30;99.90
38604;DHT22;24924;50.054;8.790;2023-08-07T04:49:10;14.20;99.90
38604;DHT22;24924;50.054;8.790;2023-08-07T04:54:02;13.00;99.90
38604;DHT22;24924;50.054;8.790;2023-08-07T05:01:22;12.30;99.90
38604;DHT22;24924;50.054;8.790;2023-08-07T05:06:14;12.60;99.90
38604;DHT22;24924;50.054;8.790;2023-08-07T05:11:07;12.80;99.90
38604;DHT22;24924;50.054;8.790;2023-08-07T05:13:32;13.60;99.90
38604;DHT22;24924;50.054;8.790;2023-08-07T05:15:58;13.30;99.90
38604;DHT22;24924;50.054;8.790;2023-08-07T05:18:24;15.10;99.90
38604;DHT22;24924;50.054;8.790;2023-08-07T05:20:50;14.70;99.90
38604;DHT22;24924;50.054;8.790;2023-08-07T05:23:16;14.20;99.90
38604;DHT22;24924;50.054;8.790;2023-08-07T05:25:41;13.60;99.90
38604;DHT22;24924;50.054;8.790;2023-08-07T05:28:10;12.80;99.90
38604;DHT22;24924;50.054;8.790;2023-08-07T05:30:36;10.80;99.90
38604;DHT22;24924;50.054;8.790;2023-08-07T05:33:01;13.10;99.90
38604;DHT22;24924;50.054;8.790;2023-08-07T05:40:19;13.30;99.90
38604;DHT22;24924;50.054;8.790;2023-08-07T05:45:11;11.50;99.90
38604;DHT22;24924;50.054;8.790;2023-08-07T05:47:37;14.50;99.90
38604;DHT22;24924;50.054;8.790;2023-08-07T05:50:03;14.20;99.90
38604;DHT22;24924;50.054;8.790;2023-08-07T05:52:29;13.60;99.90
38604;DHT22;24924;50.054;8.790;2023-08-07T05:54:55;13.90;99.90
38604;DHT22;24924;50.054;8.790;2023-08-07T05:57:21;13.30;99.90
38604;DHT22;24924;50.054;8.790;2023-08-07T06:02:12;13.70;99.90
38604;DHT22;24924;50.054;8.790;2023-08-07T06:04:38;14.50;99.90
38604;DHT22;24924;50.054;8.790;2023-08-07T06:07:05;13.20;99.90
38604;DHT22;24924;50.054;8.790;2023-08-07T06:09:31;13.30;99.90
38604;DHT22;24924;50.054;8.790;2023-08-07T06:11:57;13.60;99.90
38604;DHT22;24924;50.054;8.790;2023-08-07T06:14:23;14.90;99.90
38604;DHT22;24924;50.054;8.790;2023-08-07T06:16:51;13.70;99.90
38604;DHT22;24924;50.054;8.790;2023-08-07T06:19:16;13.10;99.90
38604;DHT22;24924;50.054;8.790;2023-08-07T06:21:43;13.00;99.90
38604;DHT22;24924;50.054;8.790;2023-08-07T06:24:08;13.40;99.90
38604;DHT22;24924;50.054;8.790;2023-08-07T06:26:34;11.20;99.90
38604;DHT22;24924;50.054;8.790;2023-08-07T06:36:18;13.10;99.90
38604;DHT22;24924;50.054;8.790;2023-08-07T06:41:10;13.00;99.90
38604;DHT22;24924;50.054;8.790;2023-08-07T06:43:36;13.80;99.90
38604;DHT22;24924;50.054;8.790;2023-08-07T06:46:01;13.30;99.90
38604;DHT22;24924;50.054;8.790;2023-08-07T06:50:53;11.60;99.90
38604;DHT22;24924;50.054;8.790;2023-08-07T06:53:19;14.10;99.90
38604;DHT22;24924;50.054;8.790;2023-08-07T06:55:44;12.40;99.90
38604;DHT22;24924;50.054;8.790;2023-08-07T06:58:10;12.90;99.90
38604;DHT22;24924;50.054;8.790;2023-08-07T07:00:36;12.90;99.90
38604;DHT22;24924;50.054;8.790;2023-08-07T07:03:03;12.80;99.90
38604;DHT22;24924;50.054;8.790;2023-08-07T07:05:29;12.80;99.90
38604;DHT22;24924;50.054;8.790;2023-08-07T07:07:56;12.80;99.90
38604;DHT22;24924;50.054;8.790;2023-08-07T07:10:22;12.90;99.90
38604;DHT22;24924;50.054;8.790;2023-08-07T07:12:48;13.60;99.90
38604;DHT22;24924;50.054;8.790;2023-08-07T07:17:40;11.70;99.90
38604;DHT22;24924;50.054;8.790;2023-08-07T07:20:06;12.20;99.90
38604;DHT22;24924;50.054;8.790;2023-08-07T07:22:34;14.20;99.90
38604;DHT22;24924;50.054;8.790;2023-08-07T07:25:00;13.70;99.90
38604;DHT22;24924;50.054;8.790;2023-08-07T07:32:18;11.70;99.90
38604;DHT22;24924;50.054;8.790;2023-08-07T07:34:44;13.50;99.90
38604;DHT22;24924;50.054;8.790;2023-08-07T07:37:10;13.00;99.90
38604;DHT22;24924;50.054;8.790;2023-08-07T07:42:03;10.60;99.90
38604;DHT22;24924;50.054;8.790;2023-08-07T07:44:30;13.60;99.90
38604;DHT22;24924;50.054;8.790;2023-08-07T07:46:56;13.60;99.90
38604;DHT22;24924;50.054;8.790;2023-08-07T07:54:15;13.60;99.90
38604;DHT22;24924;50.054;8.790;2023-08-07T07:59:06;13.30;99.90
38604;DHT22;24924;50.054;8.790;2023-08-07T08:03:58;13.40;99.90
38604;DHT22;24924;50.054;8.790;2023-08-07T08:08:50;11.10;99.90
38604;DHT22;24924;50.054;8.790;2023-08-07T08:13:43;14.00;99.90
38604;DHT22;24924;50.054;8.790;2023-08-07T08:16:08;11.80;99.90
38604;DHT22;24924;50.054;8.790;2023-08-07T08:23:26;11.30;99.90
38604;DHT22;24924;50.054;8.790;2023-08-07T08:25:52;14.00;99.90
38604;DHT22;24924;50.054;8.790;2023-08-07T08:28:18;14.00;99.90
38604;DHT22;24924;50.054;8.790;2023-08-07T08:30:43;13.70;99.90
38604;DHT22;24924;50.054;8.790;2023-08-07T08:35:38;11.70;99.90
38604;DHT22;24924;50.054;8.790;2023-08-07T08:43:00;13.50;99.90
38604;DHT22;24924;50.054;8.790;2023-08-07T08:45:27;11.90;99.90
38604;DHT22;24924;50.054;8.790;2023-08-07T08:48:01;13.60;99.90
38604;DHT22;24924;50.054;8.790;2023-08-07T08:50:28;13.40;99.90
38604;DHT22;24924;50.054;8.790;2023-08-07T08:52:56;15.10;99.90
38604;DHT22;24924;50.054;8.790;2023-08-07T08:55:22;14.70;99.90
38604;DHT22;24924;50.054;8.790;2023-08-07T08:57:49;15.10;99.90
38604;DHT22;24924;50.054;8.790;2023-08-07T09:00:19;15.20;99.90
38604;DHT22;24924;50.054;8.790;2023-08-07T09:02:49;13.30;99.90
38604;DHT22;24924;50.054;8.790;2023-08-07T09:05:16;13.60;99.90
38604;DHT22;24924;50.054;8.790;2023-08-07T09:07:43;13.40;99.90
38604;DHT22;24924;50.054;8.790;2023-08-07T09:10:13;14.10;99.90
38604;DHT22;24924;50.054;8.790;2023-08-07T09:12:59;12.40;99.90
38604;DHT22;24924;50.054;8.790;2023-08-07T09:15:25;14.10;99.90
38604;DHT22;24924;50.054;8.790;2023-08-07T09:17:53;13.40;99.90
38604;DHT22;24924;50.054;8.790;2023-08-07T09:20:20;14.80;99.90
38604;DHT22;24924;50.054;8.790;2023-08-07T09:22:46;14.90;99.90
38604;DHT22;24924;50.054;8.790;2023-08-07T09:27:39;13.40;99.90
38604;DHT22;24924;50.054;8.790;2023-08-07T09:30:08;13.20;99.90
38604;DHT22;24924;50.054;8.790;2023-08-07T09:32:35;13.50;99.90
38604;DHT22;24924;50.054;8.790;2023-08-07T09:35:03;13.50;99.90
38604;DHT22;24924;50.054;8.790;2023-08-07T09:37:30;13.90;99.90
38604;DHT22;24924;50.054;8.790;2023-08-07T09:39:55;13.70;99.90
38604;DHT22;24924;50.054;8.790;2023-08-07T09:44:48;13.60;99.90
38604;DHT22;24924;50.054;8.790;2023-08-07T09:47:18;14.10;99.90
38604;DHT22;24924;50.054;8.790;2023-08-07T09:49:45;13.60;99.90
38604;DHT22;24924;50.054;8.790;2023-08-07T09:52:13;14.00;99.90
38604;DHT22;24924;50.054;8.790;2023-08-07T09:59:33;13.50;99.90
38604;DHT22;24924;50.054;8.790;2023-08-07T10:02:02;11.60;99.90
38604;DHT22;24924;50.054;8.790;2023-08-07T10:04:29;14.10;99.90
38604;DHT22;24924;50.054;8.790;2023-08-07T10:06:56;13.90;99.90
38604;DHT22;24924;50.054;8.790;2023-08-07T10:09:22;11.80;99.90
38604;DHT22;24924;50.054;8.790;2023-08-07T10:11:49;14.00;99.90
38604;DHT22;24924;50.054;8.790;2023-08-07T10:14:15;14.50;99.90
38604;DHT22;24924;50.054;8.790;2023-08-07T10:16:42;13.90;99.90
38604;DHT22;24924;50.054;8.790;2023-08-07T10:19:09;11.80;99.90
38604;DHT22;24924;50.054;8.790;2023-08-07T10:21:37;14.00;99.90
38604;DHT22;24924;50.054;8.790;2023-08-07T10:24:04;15.10;99.90
38604;DHT22;24924;50.054;8.790;2023-08-07T10:26:32;14.10;99.90
38604;DHT22;24924;50.054;8.790;2023-08-07T10:29:00;14.10;99.90
38604;DHT22;24924;50.054;8.790;2023-08-07T10:31:27;14.90;99.90
38604;DHT22;24924;50.054;8.790;2023-08-07T10:33:53;14.60;99.90
38604;DHT22;24924;50.054;8.790;2023-08-07T10:36:19;14.30;99.90
38604;DHT22;24924;50.054;8.790;2023-08-07T10:38:45;14.30;99.90
38604;DHT22;24924;50.054;8.790;2023-08-07T10:41:14;12.40;99.90
38604;DHT22;24924;50.054;8.790;2023-08-07T10:43:44;14.40;99.90
38604;DHT22;24924;50.054;8.790;2023-08-07T10:46:15;13.90;99.90
38604;DHT22;24924;50.054;8.790;2023-08-07T10:48:42;14.20;99.90
38604;DHT22;24924;50.054;8.790;2023-08-07T10:51:12;15.10;99.90
38604;DHT22;24924;50.054;8.790;2023-08-07T10:53:43;13.90;99.90
38604;DHT22;24924;50.054;8.790;2023-08-07T10:56:18;14.00;99.90
38604;DHT22;24924;50.054;8.790;2023-08-07T10:58:54;15.10;99.90
38604;DHT22;24924;50.054;8.790;2023-08-07T11:01:27;14.00;99.90
38604;DHT22;24924;50.054;8.790;2023-08-07T11:03:54;14.00;99.90
38604;DHT22;24924;50.054;8.790;2023-08-07T11:06:29;14.10;99.90
38604;DHT22;24924;50.054;8.790;2023-08-07T11:08:57;15.10;99.90
38604;DHT22;24924;50.054;8.790;2023-08-07T11:13:50;14.10;99.90
38604;DHT22;24924;50.054;8.790;2023-08-07T11:16:17;15.10;99.90
38604;DHT22;24924;50.054;8.790;2023-08-07T11:18:44;15.20;99.90
38604;DHT22;24924;50.054;8.790;2023-08-07T11:21:10;14.50;99.90
38604;DHT22;24924;50.054;8.790;2023-08-07T11:23:40;14.20;99.90
38604;DHT22;24924;50.054;8.790;2023-08-07T11:26:07;14.60;99.90
38604;DHT22;24924;50.054;8.790;2023-08-07T11:31:00;14.60;99.90
38604;DHT22;24924;50.054;8.790;2023-08-07T11:33:28;14.10;99.90
38604;DHT22;24924;50.054;8.790;2023-08-07T11:41:00;14.70;99.90
38604;DHT22;24924;50.054;8.790;2023-08-07T11:43:30;15.10;99.90
38604;DHT22;24924;50.054;8.790;2023-08-07T11:46:07;14.30;99.90
38604;DHT22;24924;50.054;8.790;2023-08-07T11:48:35;15.60;99.90
38604;DHT22;24924;50.054;8.790;2023-08-07T11:51:03;14.90;99.90
38604;DHT22;24924;50.054;8.790;2023-08-07T11:53:30;14.40;99.90
38604;DHT22;24924;50.054;8.790;2023-08-07T11:56:00;14.80;99.90
38604;DHT22;24924;50.054;8.790;2023-08-07T11:58:28;15.30;99.90
38604;DHT22;24924;50.054;8.790;2023-08-07T12:08:17;15.30;99.90
38604;DHT22;24924;50.054;8.790;2023-08-07T12:10:43;16.30;99.90
38604;DHT22;24924;50.054;8.790;2023-08-07T12:13:08;12.80;99.90
38604;DHT22;24924;50.054;8.790;2023-08-07T12:18:01;15.30;99.90
38604;DHT22;24924;50.054;8.790;2023-08-07T12:20:27;14.80;99.90
38604;DHT22;24924;50.054;8.790;2023-08-07T12:27:46;14.50;99.90
38604;DHT22;24924;50.054;8.790;2023-08-07T12:30:15;16.10;99.90
38604;DHT22;24924;50.054;8.790;2023-08-07T12:35:06;16.30;99.90
38604;DHT22;24924;50.054;8.790;2023-08-07T12:42:28;16.80;99.90
38604;DHT22;24924;50.054;8.790;2023-08-07T12:50:08;16.30;99.90
38604;DHT22;24924;50.054;8.790;2023-08-07T12:52:34;16.90;99.90
38604;DHT22;24924;50.054;8.790;2023-08-07T12:55:00;18.40;99.90
38604;DHT22;24924;50.054;8.790;2023-08-07T12:57:26;16.40;99.90
38604;DHT22;24924;50.054;8.790;2023-08-07T12:59:52;17.40;99.90
38604;DHT22;24924;50.054;8.790;2023-08-07T13:04:44;14.70;99.90
38604;DHT22;24924;50.054;8.790;2023-08-07T13:09:36;17.40;99.90
38604;DHT22;24924;50.054;8.790;2023-08-07T13:12:02;17.10;99.90
38604;DHT22;24924;50.054;8.790;2023-08-07T13:29:14;17.90;99.90
38604;DHT22;24924;50.054;8.790;2023-08-07T13:34:12;18.40;99.90
38604;DHT22;24924;50.054;8.790;2023-08-07T13:41:31;19.50;99.90
38604;DHT22;24924;50.054;8.790;2023-08-07T13:43:58;18.70;99.90
38604;DHT22;24924;50.054;8.790;2023-08-07T13:51:17;19.50;99.90
38604;DHT22;24924;50.054;8.790;2023-08-07T13:53:44;19.20;99.90
38604;DHT22;24924;50.054;8.790;2023-08-07T13:56:10;19.80;99.90
38604;DHT22;24924;50.054;8.790;2023-08-07T13:58:38;21.00;99.90
38604;DHT22;24924;50.054;8.790;2023-08-07T14:03:31;20.70;99.90
38604;DHT22;24924;50.054;8.790;2023-08-07T14:05:57;20.30;99.90
38604;DHT22;24924;50.054;8.790;2023-08-07T14:08:23;20.30;99.90
38604;DHT22;24924;50.054;8.790;2023-08-07T14:10:49;20.80;99.90
38604;DHT22;24924;50.054;8.790;2023-08-07T14:13:16;20.60;99.90
38604;DHT22;24924;50.054;8.790;2023-08-07T14:15:42;21.10;99.90
38604;DHT22;24924;50.054;8.790;2023-08-07T14:18:08;22.30;99.90
38604;DHT22;24924;50.054;8.790;2023-08-07T14:20:35;20.80;99.90
38604;DHT22;24924;50.054;8.790;2023-08-07T14:25:27;20.00;99.90
38604;DHT22;24924;50.054;8.790;2023-08-07T14:27:53;20.10;99.90
38604;DHT22;24924;50.054;8.790;2023-08-07T14:32:46;20.70;99.90
38604;DHT22;24924;50.054;8.790;2023-08-07T14:35:15;19.90;99.90
38604;DHT22;24924;50.054;8.790;2023-08-07T14:40:08;21.60;99.90
38604;DHT22;24924;50.054;8.790;2023-08-07T14:42:33;21.90;99.90
38604;DHT22;24924;50.054;8.790;2023-08-07T14:44:59;21.70;99.90
38604;DHT22;24924;50.054;8.790;2023-08-07T14:47:25;22.00;99.90
38604;DHT22;24924;50.054;8.790;2023-08-07T14:49:51;21.30;99.90
38604;DHT22;24924;50.054;8.790;2023-08-07T14:57:10;19.80;99.90
38604;DHT22;24924;50.054;8.790;2023-08-07T14:59:36;20.40;99.90
38604;DHT22;24924;50.054;8.790;2023-08-07T15:02:02;19.20;99.90
38604;DHT22;24924;50.054;8.790;2023-08-07T15:04:28;17.70;99.90
38604;DHT22;24924;50.054;8.790;2023-08-07T15:06:53;18.30;99.90
38604;DHT22;24924;50.054;8.790;2023-08-07T15:09:19;18.60;99.90
38604;DHT22;24924;50.054;8.790;2023-08-07T15:11:46;20.80;99.90
38604;DHT22;24924;50.054;8.790;2023-08-07T15:14:12;22.30;99.90
38604;DHT22;24924;50.054;8.790;2023-08-07T15:16:38;22.60;99.90
38604;DHT22;24924;50.054;8.790;2023-08-07T15:19:04;23.00;98.80
38604;DHT22;24924;50.054;8.790;2023-08-07T15:21:30;24.10;97.20
38604;DHT22;24924;50.054;8.790;2023-08-07T15:23:56;24.40;96.60
38604;DHT22;24924;50.054;8.790;2023-08-07T15:26:22;24.70;97.00
38604;DHT22;24924;50.054;8.790;2023-08-07T15:33:41;23.60;94.70
38604;DHT22;24924;50.054;8.790;2023-08-07T15:36:08;24.60;95.20
38604;DHT22;24924;50.054;8.790;2023-08-07T15:38:33;25.20;94.70
38604;DHT22;24924;50.054;8.790;2023-08-07T15:41:01;24.70;94.00
38604;DHT22;24924;50.054;8.790;2023-08-07T15:43:27;25.00;93.80
38604;DHT22;24924;50.054;8.790;2023-08-07T15:45:53;25.80;95.10
38604;DHT22;24924;50.054;8.790;2023-08-07T15:48:19;24.50;94.70
38604;DHT22;24924;50.054;8.790;2023-08-07T15:50:45;24.60;93.60
38604;DHT22;24924;50.054;8.790;2023-08-07T15:53:11;24.40;94.70
38604;DHT22;24924;50.054;8.790;2023-08-07T15:55:37;22.20;96.20
38604;DHT22;24924;50.054;8.790;2023-08-07T15:58:04;22.20;97.70
38604;DHT22;24924;50.054;8.790;2023-08-07T16:00:32;20.10;98.60
38604;DHT22;24924;50.054;8.790;2023-08-07T16:03:03;20.00;98.90
38604;DHT22;24924;50.054;8.790;2023-08-07T16:05:34;20.80;99.40
38604;DHT22;24924;50.054;8.790;2023-08-07T16:08:01;20.70;99.90
38604;DHT22;24924;50.054;8.790;2023-08-07T16:10:27;20.50;99.90
38604;DHT22;24924;50.054;8.790;2023-08-07T16:12:54;20.80;99.90
38604;DHT22;24924;50.054;8.790;2023-08-07T16:15:21;19.80;99.90
38604;DHT22;24924;50.054;8.790;2023-08-07T16:20:13;22.30;99.90
38604;DHT22;24924;50.054;8.790;2023-08-07T16:22:39;22.10;99.90
38604;DHT22;24924;50.054;8.790;2023-08-07T16:25:06;23.70;99.40
38604;DHT22;24924;50.054;8.790;2023-08-07T16:27:32;24.00;98.60
38604;DHT22;24924;50.054;8.790;2023-08-07T16:30:01;24.70;97.30
38604;DHT22;24924;50.054;8.790;2023-08-07T16:32:33;24.60;96.00
38604;DHT22;24924;50.054;8.790;2023-08-07T16:35:00;25.40;94.70
38604;DHT22;24924;50.054;8.790;2023-08-07T16:37:27;25.30;94.80
38604;DHT22;24924;50.054;8.790;2023-08-07T16:39:53;25.40;94.80
38604;DHT22;24924;50.054;8.790;2023-08-07T16:42:19;24.40;94.20
38604;DHT22;24924;50.054;8.790;2023-08-07T16:44:45;23.20;96.80
38604;DHT22;24924;50.054;8.790;2023-08-07T16:47:11;22.20;99.30
38604;DHT22;24924;50.054;8.790;2023-08-07T16:49:37;22.10;99.50
38604;DHT22;24924;50.054;8.790;2023-08-07T16:52:03;22.00;99.90
38604;DHT22;24924;50.054;8.790;2023-08-07T16:54:30;20.20;99.90
38604;DHT22;24924;50.054;8.790;2023-08-07T16:56:56;20.60;99.90
38604;DHT22;24924;50.054;8.790;2023-08-07T16:59:22;19.70;99.90
38604;DHT22;24924;50.054;8.790;2023-08-07T17:01:48;20.20;99.90
38604;DHT22;24924;50.054;8.790;2023-08-07T17:04:14;20.10;99.90
38604;DHT22;24924;50.054;8.790;2023-08-07T17:06:40;20.50;99.90
38604;DHT22;24924;50.054;8.790;2023-08-07T17:11:32;20.10;99.90
38604;DHT22;24924;50.054;8.790;2023-08-07T17:13:58;18.90;99.90
38604;DHT22;24924;50.054;8.790;2023-08-07T17:16:24;18.70;99.90
38604;DHT22;24924;50.054;8.790;2023-08-07T17:18:50;20.20;99.90
38604;DHT22;24924;50.054;8.790;2023-08-07T17:21:16;19.40;99.90
38604;DHT22;24924;50.054;8.790;2023-08-07T17:26:08;19.30;99.90
38604;DHT22;24924;50.054;8.790;2023-08-07T17:28:36;18.90;99.90
38604;DHT22;24924;50.054;8.790;2023-08-07T17:31:02;18.80;99.90
38604;DHT22;24924;50.054;8.790;2023-08-07T17:33:28;19.10;99.90
38604;DHT22;24924;50.054;8.790;2023-08-07T17:35:55;18.20;99.90
38604;DHT22;24924;50.054;8.790;2023-08-07T17:40:47;19.70;99.90
38604;DHT22;24924;50.054;8.790;2023-08-07T17:43:14;19.10;99.90
38604;DHT22;24924;50.054;8.790;2023-08-07T17:45:40;20.20;99.90
38604;DHT22;24924;50.054;8.790;2023-08-07T17:48:07;20.10;99.90
38604;DHT22;24924;50.054;8.790;2023-08-07T17:50:33;19.70;99.90
38604;DHT22;24924;50.054;8.790;2023-08-07T17:55:25;19.50;99.90
38604;DHT22;24924;50.054;8.790;2023-08-07T18:02:44;19.60;99.90
38604;DHT22;24924;50.054;8.790;2023-08-07T18:05:10;18.10;99.90
38604;DHT22;24924;50.054;8.790;2023-08-07T18:07:37;18.60;99.90
38604;DHT22;24924;50.054;8.790;2023-08-07T18:10:04;18.30;99.90
38604;DHT22;24924;50.054;8.790;2023-08-07T18:12:31;18.30;99.90
38604;DHT22;24924;50.054;8.790;2023-08-07T18:14:57;18.60;99.90
38604;DHT22;24924;50.054;8.790;2023-08-07T18:17:24;18.60;99.90
38604;DHT22;24924;50.054;8.790;2023-08-07T18:19:50;18.30;99.90
38604;DHT22;24924;50.054;8.790;2023-08-07T18:22:17;17.90;99.90
38604;DHT22;24924;50.054;8.790;2023-08-07T18:24:43;17.50;99.90
38604;DHT22;24924;50.054;8.790;2023-08-07T18:27:09;17.80;99.90
38604;DHT22;24924;50.054;8.790;2023-08-07T18:29:36;17.10;99.90
38604;DHT22;24924;50.054;8.790;2023-08-07T18:32:02;16.90;99.90
38604;DHT22;24924;50.054;8.790;2023-08-07T18:34:30;17.90;99.90
38604;DHT22;24924;50.054;8.790;2023-08-07T18:36:56;17.60;99.90
38604;DHT22;24924;50.054;8.790;2023-08-07T18:44:14;16.60;99.90
38604;DHT22;24924;50.054;8.790;2023-08-07T18:46:41;16.80;99.90
38604;DHT22;24924;50.054;8.790;2023-08-07T18:51:33;16.80;99.90
38604;DHT22;24924;50.054;8.790;2023-08-07T18:54:01;16.20;99.90
38604;DHT22;24924;50.054;8.790;2023-08-07T18:56:27;15.80;99.90
38604;DHT22;24924;50.054;8.790;2023-08-07T18:58:54;15.90;99.90
38604;DHT22;24924;50.054;8.790;2023-08-07T19:01:20;16.10;99.90
38604;DHT22;24924;50.054;8.790;2023-08-07T19:06:12;16.30;99.90
38604;DHT22;24924;50.054;8.790;2023-08-07T19:11:05;17.50;99.90
38604;DHT22;24924;50.054;8.790;2023-08-07T19:18:24;16.40;99.90
38604;DHT22;24924;50.054;8.790;2023-08-07T19:20:51;15.60;99.90
38604;DHT22;24924;50.054;8.790;2023-08-07T19:23:18;14.90;99.90
38604;DHT22;24924;50.054;8.790;2023-08-07T19:25:44;16.10;99.90
38604;DHT22;24924;50.054;8.790;2023-08-07T19:28:10;15.00;99.90
38604;DHT22;24924;50.054;8.790;2023-08-07T19:33:04;14.60;99.90
38604;DHT22;24924;50.054;8.790;2023-08-07T19:35:31;16.10;99.90
38604;DHT22;24924;50.054;8.790;2023-08-07T19:42:51;15.20;99.90
38604;DHT22;24924;50.054;8.790;2023-08-07T19:45:17;16.20;99.90
38604;DHT22;24924;50.054;8.790;2023-08-07T19:50:09;15.80;99.90
38604;DHT22;24924;50.054;8.790;2023-08-07T19:55:02;15.40;99.90
38604;DHT22;24924;50.054;8.790;2023-08-07T20:02:20;16.10;99.90
38604;DHT22;24924;50.054;8.790;2023-08-07T20:04:47;16.00;99.90
38604;DHT22;24924;50.054;8.790;2023-08-07T20:07:13;15.40;99.90
38604;DHT22;24924;50.054;8.790;2023-08-07T20:12:05;14.60;99.90
38604;DHT22;24924;50.054;8.790;2023-08-07T20:14:32;15.40;99.90
38604;DHT22;24924;50.054;8.790;2023-08-07T20:16:58;14.50;99.90
38604;DHT22;24924;50.054;8.790;2023-08-07T20:19:24;16.50;99.90
38604;DHT22;24924;50.054;8.790;2023-08-07T20:21:49;15.80;99.90